Pico Truncado, Argentina
Current Conditions -  °F | °C
As of 11:00 AM on Thursday 30 Oct 2014 (Local Time) from SAVC Reporting Station
Scattered Clouds Scattered Clouds  
Wind Chill: 39°   Ceiling: Unl
Heat Index: 46°   Visibility: 6mi
Dew Point: 16°   Wind: 22mph
Humidity: 29%   Direction: 250°WSW
Pressure: 29.44"   Gusts: NA
Location:  46.8°S, 67.97°W
Report Text: SAVC 301400Z 25019KT 9999 SCT025 SCT030 08/M09 Q0997
Loading
Personal Weather Stations






























Interactive Weather Map
Tropical Storm Tracking
New forecast layout! Learn more

10-Day Weather Forecast

Advertisements
Track Severe Weather on mobile